Time;durP1;ratioP1;P1;durP2;ratioP2;P2;SDS_P1;SDS_P2;PMS_P1;PMS_P2;Temp;Humidity;BMP_temperature;BMP_pressure;BME280_temperature;BME280_humidity;BME280_pressure;Samples;Min_cycle;Max_cycle;Signal;HPM_P1;HPM_P2
2023/02/18 00:00:51;;;;;;;;;;;;;;;;;;4438686;32;20068;-81
2023/02/18 00:03:16;;;;;;;107.20;45.05;;;;;;;;;;4437746;32;19940;-81
2023/02/18 00:05:41;;;;;;;105.35;46.60;;;;;;;;;;4424497;32;20025;-80
2023/02/18 00:08:06;;;;;;;;;;;;;;;;;;4438426;32;20407;-80
2023/02/18 00:10:32;;;;;;;118.15;46.72;;;;;;;;;;4439134;32;19937;-80
2023/02/18 00:12:57;;;;;;;;;;;;;;;;;;4438804;32;20157;-79
2023/02/18 00:15:22;;;;;;;108.95;44.35;;;;;;;;;;4440590;32;20282;-79
2023/02/18 00:17:47;;;;;;;;;;;;;;;;;;4424741;32;20501;-81
2023/02/18 00:20:12;;;;;;;111.78;46.97;;;;;;;;;;4438513;32;19951;-81
2023/02/18 00:22:37;;;;;;;;;;;;;;;;;;4439730;32;20153;-81
2023/02/18 00:25:03;;;;;;;112.12;47.25;;;;;;;;;;4438388;32;19932;-80
2023/02/18 00:27:28;;;;;;;122.50;47.05;;;;;;;;;;4438308;32;20029;-80
2023/02/18 00:29:53;;;;;;;107.25;45.83;;;;;;;;;;4438235;32;20444;-80
2023/02/18 00:32:18;;;;;;;;;;;;;;;;;;4423744;32;20026;-80
2023/02/18 00:34:44;;;;;;;114.16;43.36;;;;;;;;;;4438397;32;19933;-80
2023/02/18 00:37:09;;;;;;;;;;;;;;;;;;4439615;32;20037;-80
2023/02/18 00:39:34;;;;;;;115.70;46.95;;;;;;;;;;4439135;32;19980;-81
2023/02/18 00:41:59;;;;;;;;;;;;;;;;;;4428503;32;20169;-80
2023/02/18 00:44:24;;;;;;;107.75;42.80;;;;;;;;;;4443952;32;19941;-80
2023/02/18 00:46:50;;;;;;;108.60;44.45;;;;;;;;;;4444593;32;20056;-80
2023/02/18 00:49:15;;;;;;;;;;;;;;;;;;4438750;32;20411;-80
2023/02/18 00:51:41;;;;;;;123.87;45.67;;;;;;;;;;4437562;32;19937;-80
2023/02/18 00:54:06;;;;;;;;;;;;;;;;;;4439427;32;20144;-80
2023/02/18 00:56:31;;;;;;;114.68;47.62;;;;;;;;;;4437961;32;19952;-80
2023/02/18 00:58:56;;;;;;;;;;;;;;;;;;4438436;32;20400;-79
2023/02/18 01:01:21;;;;;;;115.95;46.70;;;;;;;;;;4439700;32;19952;-79
2023/02/18 01:03:46;;;;;;;133.35;51.58;;;;;;;;;;4429855;32;20089;-79
2023/02/18 01:06:11;;;;;;;;;;;;;;;;;;4441962;32;20037;-79
2023/02/18 01:08:37;;;;;;;115.20;46.97;;;;;;;;;;4439250;32;19984;-80
2023/02/18 01:11:02;;;;;;;;;;;;;;;;;;4439281;32;20117;-78
2023/02/18 01:13:27;;;;;;;118.90;48.65;;;;;;;;;;4438545;32;19971;-80
2023/02/18 01:15:53;;;;;;;112.75;47.55;;;;;;;;;;4422593;32;20033;-80
2023/02/18 01:18:18;;;;;;;;;;;;;;;;;;4437851;32;20137;-81
2023/02/18 01:20:43;;;;;;;111.30;48.92;;;;;;;;;;4438781;32;19980;-79
2023/02/18 01:23:09;;;;;;;133.32;53.47;;;;;;;;;;4437190;32;20339;-80
2023/02/18 01:25:34;;;;;;;122.37;52.08;;;;;;;;;;4438473;32;20060;-79
2023/02/18 01:27:59;;;;;;;;;;;;;;;;;;4437356;32;20025;-80
2023/02/18 01:30:25;;;;;;;121.90;52.30;;;;;;;;;;4437963;32;19952;-80
2023/02/18 01:32:50;;;;;;;116.72;50.60;;;;;;;;;;4437641;32;20407;-79
2023/02/18 01:35:16;;;;;;;134.75;56.28;;;;;;;;;;4436490;32;20052;-79
2023/02/18 01:37:41;;;;;;;121.20;51.95;;;;;;;;;;4436473;32;20037;-80
2023/02/18 01:40:06;;;;;;;;;;;;;;;;;;4423109;32;20471;-80
2023/02/18 01:42:32;;;;;;;121.40;53.22;;;;;;;;;;4422818;32;19937;-80
2023/02/18 01:45:16;;;;;;;138.68;57.78;;;;;;;;;;4439088;32;20442;-81
2023/02/18 01:47:42;;;;;;;119.62;55.22;;;;;;;;;;4447759;32;20060;-80
2023/02/18 01:50:07;;;;;;;;;;;;;;;;;;4446765;32;20041;-79
2023/02/18 01:52:32;;;;;;;121.35;50.92;;;;;;;;;;4425727;32;19937;-80
2023/02/18 01:54:58;;;;;;;132.95;55.17;;;;;;;;;;4437074;32;20087;-80
2023/02/18 01:57:23;;;;;;;;;;;;;;;;;;4439439;32;20049;-80
2023/02/18 01:59:50;;;;;;;132.87;53.58;;;;;;;;;;4438998;32;19968;-81
2023/02/18 02:02:18;;;;;;;131.00;56.85;;;;;;;;;;4438296;32;20038;-81
2023/02/18 02:04:43;;;;;;;140.80;60.55;;;;;;;;;;4422977;32;20034;-80
2023/02/18 02:07:08;;;;;;;;;;;;;;;;;;4425935;32;20081;-80
2023/02/18 02:09:34;;;;;;;124.75;57.35;;;;;;;;;;4440434;32;19937;-80
2023/02/18 02:12:08;;;;;;;135.20;57.67;;;;;;;;;;4438612;32;20097;-80
2023/02/18 02:14:33;;;;;;;137.93;59.72;;;;;;;;;;4422433;32;20034;-80
2023/02/18 02:16:58;;;;;;;;;;;;;;;;;;4436580;32;20061;-79
2023/02/18 02:19:40;;;;;;;120.25;53.87;;;;;;;;;;4436719;32;20366;-80
2023/02/18 02:22:06;;;;;;;126.30;56.42;;;;;;;;;;4438198;32;20495;-80
2023/02/18 02:24:31;;;;;;;;;;;;;;;;;;4437063;32;20057;-79
2023/02/18 02:27:04;;;;;;;134.40;55.90;;;;;;;;;;4437231;32;19932;-79
2023/02/18 02:29:47;;;;;;;125.95;57.88;;;;;;;;;;4437264;32;20030;-81
2023/02/18 02:32:12;;;;;;;128.60;60.97;;;;;;;;;;4437791;32;20038;-80
2023/02/18 02:34:38;;;;;;;125.10;57.45;;;;;;;;;;4436302;32;20075;-79
2023/02/18 02:37:03;;;;;;;;;;;;;;;;;;4436920;32;20030;-79
2023/02/18 02:39:33;;;;;;;130.37;55.47;;;;;;;;;;4440160;32;20019;-78
2023/02/18 02:42:04;;;;;;;107.95;51.75;;;;;;;;;;4442026;32;20429;-80
2023/02/18 02:44:35;;;;;;;106.78;49.15;;;;;;;;;;4426619;32;20041;-78
2023/02/18 02:47:06;;;;;;;114.68;49.63;;;;;;;;;;4441058;32;20057;-78
2023/02/18 02:49:37;;;;;;;101.80;48.58;;;;;;;;;;4440514;32;20030;-79
2023/02/18 02:52:06;;;;;;;117.18;49.35;;;;;;;;;;4439038;32;20044;-79
2023/02/18 02:54:31;;;;;;;102.87;43.72;;;;;;;;;;4424193;32;20038;-78
2023/02/18 02:56:57;;;;;;;;;;;;;;;;;;4440317;32;20384;-79
2023/02/18 02:59:23;;;;;;;77.25;33.88;;;;;;;;;;4442643;32;19933;-78
2023/02/18 03:02:05;;;;;;;67.72;31.12;;;;;;;;;;4428643;32;20149;-79
2023/02/18 03:04:46;;;;;;;53.80;23.12;;;;;;;;;;4445291;32;20424;-78
2023/02/18 03:07:20;;;;;;;43.40;19.27;;;;;;;;;;4442776;32;20056;-78
2023/02/18 03:10:13;;;;;;;35.97;17.85;;;;;;;;;;4439612;32;20074;-77
2023/02/18 03:12:52;;;;;;;37.65;16.52;;;;;;;;;;4438934;32;20084;-77
2023/02/18 03:15:20;;;;;;;29.33;14.38;;;;;;;;;;4440496;32;20022;-75
2023/02/18 03:17:50;;;;;;;23.77;12.80;;;;;;;;;;4439348;32;20026;-77
2023/02/18 03:20:22;;;;;;;26.35;11.98;;;;;;;;;;4438288;32;20388;-77
2023/02/18 03:22:49;;;;;;;24.83;12.05;;;;;;;;;;4438690;32;20033;-76
2023/02/18 03:25:15;;;;;;;22.90;12.02;;;;;;;;;;4425060;32;20082;-77
2023/02/18 03:27:44;;;;;;;23.52;12.15;;;;;;;;;;4437664;32;20033;-76
2023/02/18 03:30:09;;;;;;;23.62;12.37;;;;;;;;;;4439335;32;20122;-76
2023/02/18 03:32:34;;;;;;;;;;;;;;;;;;4438498;32;20034;-77
2023/02/18 03:35:01;;;;;;;26.05;14.02;;;;;;;;;;4438115;32;20027;-78
2023/02/18 03:37:27;;;;;;;26.77;14.48;;;;;;;;;;4437746;32;20129;-78
2023/02/18 03:39:52;;;;;;;;;;;;;;;;;;4438205;32;20083;-78
2023/02/18 03:42:18;;;;;;;32.67;18.27;;;;;;;;;;4438235;32;19967;-77
2023/02/18 03:44:43;;;;;;;31.80;18.10;;;;;;;;;;4425587;32;20030;-80
2023/02/18 03:47:08;;;;;;;;;;;;;;;;;;4438117;32;20076;-79
2023/02/18 03:49:33;;;;;;;32.85;17.58;;;;;;;;;;4438953;32;19943;-79
2023/02/18 03:51:59;;;;;;;31.70;19.37;;;;;;;;;;4439329;32;20388;-79
2023/02/18 03:54:24;;;;;;;;;;;;;;;;;;4439728;32;20082;-78
2023/02/18 03:56:49;;;;;;;34.08;19.87;;;;;;;;;;4437677;32;19963;-78
2023/02/18 03:59:14;;;;;;;34.95;20.25;;;;;;;;;;4439269;32;20399;-79
2023/02/18 04:01:39;;;;;;;;;;;;;;;;;;4438340;32;20021;-80
2023/02/18 04:04:04;;;;;;;34.85;21.08;;;;;;;;;;4437606;32;19944;-78
2023/02/18 04:06:29;;;;;;;34.30;20.40;;;;;;;;;;4437940;32;20056;-78
2023/02/18 04:08:55;;;;;;;;;;;;;;;;;;4439082;32;20071;-79
2023/02/18 04:11:20;;;;;;;26.45;18.02;;;;;;;;;;4440254;32;19936;-79
2023/02/18 04:13:45;;;;;;;29.55;19.52;;;;;;;;;;4439066;32;20094;-78
2023/02/18 04:16:10;;;;;;;;;;;;;;;;;;4438790;32;20438;-79
2023/02/18 04:18:35;;;;;;;29.23;19.23;;;;;;;;;;4437777;32;19941;-78
2023/02/18 04:21:00;;;;;;;26.67;18.52;;;;;;;;;;4438942;32;20453;-78
2023/02/18 04:23:26;;;;;;;27.67;19.08;;;;;;;;;;4439296;32;20391;-79
2023/02/18 04:25:51;;;;;;;32.13;19.05;;;;;;;;;;4438195;32;20026;-79
2023/02/18 04:28:16;;;;;;;;;;;;;;;;;;4440252;32;20030;-78
2023/02/18 04:30:42;;;;;;;28.98;19.67;;;;;;;;;;4441975;32;19932;-78
2023/02/18 04:33:07;;;;;;;31.85;21.15;;;;;;;;;;4439977;32;20029;-77
2023/02/18 04:35:32;;;;;;;36.30;22.33;;;;;;;;;;4423560;32;20101;-77
2023/02/18 04:37:58;;;;;;;;;;;;;;;;;;4437446;32;20128;-78
2023/02/18 04:40:25;;;;;;;52.40;26.02;;;;;;;;;;4439300;32;19932;-78
2023/02/18 04:42:50;;;;;;;47.92;25.52;;;;;;;;;;4438338;32;20057;-77
2023/02/18 04:45:15;;;;;;;;;;;;;;;;;;4437441;32;20055;-78
2023/02/18 04:47:41;;;;;;;54.33;30.70;;;;;;;;;;4436325;32;19973;-77
2023/02/18 04:50:06;;;;;;;53.78;29.45;;;;;;;;;;4436897;32;20090;-78
2023/02/18 04:52:31;;;;;;;;;;;;;;;;;;4438300;32;20030;-78
2023/02/18 04:54:57;;;;;;;61.78;31.60;;;;;;;;;;4437049;32;19952;-77
2023/02/18 04:57:22;;;;;;;;;;;;;;;;;;4438283;32;20427;-77
2023/02/18 04:59:47;;;;;;;51.65;28.17;;;;;;;;;;4436844;32;20361;-78
2023/02/18 05:02:12;;;;;;;;;;;;;;;;;;4438482;32;20052;-78
2023/02/18 05:04:37;;;;;;;61.42;30.83;;;;;;;;;;4436225;32;19977;-78
2023/02/18 05:07:02;;;;;;;45.22;27.75;;;;;;;;;;4436414;32;20022;-78
2023/02/18 05:09:28;;;;;;;60.33;30.12;;;;;;;;;;4423136;32;20072;-79
2023/02/18 05:11:53;;;;;;;;;;;;;;;;;;4438594;32;20026;-78
2023/02/18 05:14:18;;;;;;;45.92;28.02;;;;;;;;;;4424530;32;19998;-79
2023/02/18 05:16:43;;;;;;;;;;;;;;;;;;4425245;32;20030;-78
2023/02/18 05:19:12;;;;;;;47.03;27.70;;;;;;;;;;4439258;32;20337;-79
2023/02/18 05:21:37;;;;;;;39.95;26.05;;;;;;;;;;4439799;32;20370;-77
2023/02/18 05:24:02;;;;;;;;;;;;;;;;;;4439142;32;20026;-79
2023/02/18 05:26:27;;;;;;;38.20;23.60;;;;;;;;;;4438681;32;19972;-77
2023/02/18 05:28:52;;;;;;;;;;;;;;;;;;4422748;32;20390;-78
2023/02/18 05:31:17;;;;;;;37.80;23.27;;;;;;;;;;4436626;32;19937;-78
2023/02/18 05:33:43;;;;;;;37.20;23.55;;;;;;;;;;4422572;32;20068;-78
2023/02/18 05:36:08;;;;;;;;;;;;;;;;;;4436686;32;20445;-77
2023/02/18 05:38:33;;;;;;;34.40;23.02;;;;;;;;;;4422583;32;19936;-77
2023/02/18 05:40:58;;;;;;;34.10;23.38;;;;;;;;;;4436101;32;20077;-77
2023/02/18 05:43:23;;;;;;;;;;;;;;;;;;4437278;32;20038;-76
2023/02/18 05:45:49;;;;;;;40.28;24.42;;;;;;;;;;4439261;32;19991;-77
2023/02/18 05:48:14;;;;;;;;;;;;;;;;;;4430971;32;20154;-78
2023/02/18 05:50:39;;;;;;;37.53;23.58;;;;;;;;;;4448473;32;20398;-79
2023/02/18 05:53:04;;;;;;;;;;;;;;;;;;4437831;32;20222;-77
2023/02/18 05:55:29;;;;;;;35.25;23.67;;;;;;;;;;4437825;32;19959;-77
2023/02/18 05:57:54;;;;;;;;;;;;;;;;;;4436445;32;20124;-77
2023/02/18 06:00:19;;;;;;;43.50;24.00;;;;;;;;;;4437046;32;20282;-77
2023/02/18 06:02:45;;;;;;;46.35;24.45;;;;;;;;;;4422105;32;20069;-77
2023/02/18 06:05:10;;;;;;;44.38;24.12;;;;;;;;;;4436249;32;20030;-77
2023/02/18 06:07:35;;;;;;;42.55;23.58;;;;;;;;;;4437944;32;20093;-78
2023/02/18 06:10:00;;;;;;;;;;;;;;;;;;4436558;32;20029;-78
2023/02/18 06:12:25;;;;;;;54.70;27.58;;;;;;;;;;4438339;32;20355;-78
2023/02/18 06:14:51;;;;;;;46.20;26.58;;;;;;;;;;4424976;32;20033;-77
2023/02/18 06:17:17;;;;;;;53.70;24.70;;;;;;;;;;4439362;32;20045;-79
2023/02/18 06:19:42;;;;;;;45.58;24.33;;;;;;;;;;4439725;32;20053;-78
2023/02/18 06:22:07;;;;;;;;;;;;;;;;;;4425536;32;20087;-78
2023/02/18 06:24:33;;;;;;;49.00;20.80;;;;;;;;;;4440661;32;20315;-78
2023/02/18 06:26:58;;;;;;;;;;;;;;;;;;4441572;32;20072;-78
2023/02/18 06:29:23;;;;;;;50.15;23.83;;;;;;;;;;4440921;32;19937;-78
2023/02/18 06:31:48;;;;;;;44.75;20.60;;;;;;;;;;4438754;32;20030;-79
2023/02/18 06:34:14;;;;;;;40.05;18.27;;;;;;;;;;4439388;32;20698;-79
2023/02/18 06:36:39;;;;;;;;;;;;;;;;;;4440152;32;20025;-79
2023/02/18 06:39:05;;;;;;;37.00;17.98;;;;;;;;;;4424160;32;19940;-79
2023/02/18 06:41:30;;;;;;;50.22;19.90;;;;;;;;;;4424350;32;20030;-80
2023/02/18 06:43:55;;;;;;;;;;;;;;;;;;4423567;32;20034;-80
2023/02/18 06:46:20;;;;;;;50.12;20.00;;;;;;;;;;4424429;32;19948;-79
2023/02/18 06:48:45;;;;;;;;;;;;;;;;;;4424790;32;20144;-80
2023/02/18 06:51:10;;;;;;;44.63;19.10;;;;;;;;;;4423725;32;19951;-78
2023/02/18 06:53:36;;;;;;;49.80;18.20;;;;;;;;;;4423831;32;20076;-78
2023/02/18 06:56:01;;;;;;;46.17;17.60;;;;;;;;;;4425524;32;20064;-78
2023/02/18 06:58:26;;;;;;;;;;;;;;;;;;4423197;32;20026;-80
2023/02/18 07:00:51;;;;;;;34.70;15.00;;;;;;;;;;4423517;32;20299;-79
2023/02/18 07:03:16;;;;;;;;;;;;;;;;;;4425402;32;20140;-80
2023/02/18 07:05:41;;;;;;;38.88;13.70;;;;;;;;;;4423710;32;20323;-79
2023/02/18 07:08:07;;;;;;;30.12;12.65;;;;;;;;;;4423671;32;20046;-79
2023/02/18 07:10:32;;;;;;;37.90;13.07;;;;;;;;;;4425018;32;20082;-79
2023/02/18 07:12:57;;;;;;;32.53;9.82;;;;;;;;;;4425400;32;20069;-78
2023/02/18 07:15:23;;;;;;;31.12;9.23;;;;;;;;;;4425055;32;20363;-78
2023/02/18 07:17:48;;;;;;;;;;;;;;;;;;4424913;32;20114;-80
2023/02/18 07:20:13;;;;;;;26.12;7.68;;;;;;;;;;4423449;32;19977;-79
2023/02/18 07:22:38;;;;;;;34.64;7.26;;;;;;;;;;4425669;32;20070;-80
2023/02/18 07:25:03;;;;;;;;;;;;;;;;;;4429376;32;20034;-79
2023/02/18 07:27:29;;;;;;;34.45;6.03;;;;;;;;;;4430474;32;19940;-80
2023/02/18 07:29:54;;;;;;;37.25;6.85;;;;;;;;;;4425362;32;20101;-79
2023/02/18 07:32:19;;;;;;;;;;;;;;;;;;4423926;32;20098;-79
2023/02/18 07:34:44;;;;;;;27.42;6.37;;;;;;;;;;4429645;32;19933;-80
2023/02/18 07:37:11;;;;;;;;;;;;;;;;;;4428783;32;20125;-79
2023/02/18 07:39:39;;;;;;;28.50;5.90;;;;;;;;;;4440197;32;19952;-78
2023/02/18 07:42:04;;;;;;;29.08;5.40;;;;;;;;;;4439362;32;20383;-79
2023/02/18 07:44:30;;;;;;;;;;;;;;;;;;4440002;32;20067;-80
2023/02/18 07:46:55;;;;;;;25.80;5.37;;;;;;;;;;4439225;32;19933;-79
2023/02/18 07:49:20;;;;;;;;;;;;;;;;;;4441601;32;20071;-79
2023/02/18 07:51:46;;;;;;;22.17;4.57;;;;;;;;;;4447658;32;20239;-80
2023/02/18 07:54:11;;;;;;;;;;;;;;;;;;4449650;32;20121;-80
2023/02/18 07:56:36;;;;;;;16.16;4.54;;;;;;;;;;4435075;32;19941;-79
2023/02/18 07:59:01;;;;;;;;;;;;;;;;;;4447380;32;20037;-79
2023/02/18 08:01:26;;;;;;;28.62;6.75;;;;;;;;;;4447580;32;19947;-79
2023/02/18 08:03:52;;;;;;;23.52;4.62;;;;;;;;;;4449269;32;20041;-78
2023/02/18 08:06:17;;;;;;;;;;;;;;;;;;4446037;32;20026;-79
2023/02/18 08:08:42;;;;;;;28.42;4.40;;;;;;;;;;4437550;32;19952;-79
2023/02/18 08:11:07;;;;;;;;;;;;;;;;;;4421619;32;20116;-79
2023/02/18 08:13:32;;;;;;;21.87;4.95;;;;;;;;;;4439023;32;19974;-80
2023/02/18 08:15:57;;;;;;;;;;;;;;;;;;4439320;32;20620;-79
2023/02/18 08:18:24;;;;;;;27.20;4.28;;;;;;;;;;4426568;32;19941;-79
2023/02/18 08:20:50;;;;;;;17.15;4.47;;;;;;;;;;4439513;32;20107;-80
2023/02/18 08:23:16;;;;;;;24.95;4.50;;;;;;;;;;4440743;32;20026;-79
2023/02/18 08:25:41;;;;;;;;;;;;;;;;;;4439332;32;20025;-79
2023/02/18 08:28:06;;;;;;;19.87;4.25;;;;;;;;;;4438683;32;19998;-81
2023/02/18 08:30:31;;;;;;;32.35;7.37;;;;;;;;;;4424474;32;20037;-79
2023/02/18 08:32:56;;;;;;;;;;;;;;;;;;4442175;32;20026;-79
2023/02/18 08:35:22;;;;;;;23.58;4.72;;;;;;;;;;4426380;32;20322;-79
2023/02/18 08:37:47;;;;;;;24.33;5.78;;;;;;;;;;4439124;32;20055;-78
2023/02/18 08:40:13;;;;;;;;;;;;;;;;;;4441755;32;20045;-79
2023/02/18 08:42:38;;;;;;;20.60;4.22;;;;;;;;;;4441871;32;19951;-79
2023/02/18 08:45:03;;;;;;;;;;;;;;;;;;4442011;32;20121;-79
2023/02/18 08:47:28;;;;;;;26.67;4.80;;;;;;;;;;4440027;32;19940;-79
2023/02/18 08:49:54;;;;;;;31.42;6.30;;;;;;;;;;4425319;32;20080;-79
2023/02/18 08:52:19;;;;;;;;;;;;;;;;;;4440589;32;20089;-79
2023/02/18 08:54:44;;;;;;;26.67;4.90;;;;;;;;;;4438684;32;19988;-79
2023/02/18 08:57:09;;;;;;;;;;;;;;;;;;4426005;32;20174;-79
2023/02/18 08:59:34;;;;;;;25.33;4.78;;;;;;;;;;4437752;32;19952;-79
2023/02/18 09:01:59;;;;;;;30.10;4.87;;;;;;;;;;4425367;32;20030;-78
2023/02/18 09:04:24;;;;;;;;;;;;;;;;;;4438884;32;20021;-79
2023/02/18 09:06:50;;;;;;;26.85;4.87;;;;;;;;;;4437681;32;20278;-79
2023/02/18 09:09:18;;;;;;;26.55;4.95;;;;;;;;;;4437768;32;20022;-79
2023/02/18 09:11:43;;;;;;;32.72;4.72;;;;;;;;;;4436836;32;20042;-79
2023/02/18 09:14:08;;;;;;;;;;;;;;;;;;4437915;32;20075;-78
2023/02/18 09:16:34;;;;;;;21.87;5.12;;;;;;;;;;4439039;32;19933;-81
2023/02/18 09:18:59;;;;;;;;;;;;;;;;;;4438984;32;20239;-78
2023/02/18 09:21:25;;;;;;;26.40;5.03;;;;;;;;;;4438884;32;19984;-78
2023/02/18 09:23:50;;;;;;;19.80;4.43;;;;;;;;;;4437352;32;20099;-77
2023/02/18 09:26:16;;;;;;;37.50;6.62;;;;;;;;;;4438954;32;20390;-78
2023/02/18 09:28:42;;;;;;;25.23;5.30;;;;;;;;;;4436401;32;20094;-79
2023/02/18 09:31:07;;;;;;;;;;;;;;;;;;4432003;32;20033;-77
2023/02/18 09:33:36;;;;;;;26.85;4.93;;;;;;;;;;4438683;32;19936;-79
2023/02/18 09:36:01;;;;;;;18.27;4.60;;;;;;;;;;4427352;32;20052;-79
2023/02/18 09:38:26;;;;;;;;;;;;;;;;;;4434189;32;20108;-78
2023/02/18 09:40:52;;;;;;;23.55;4.80;;;;;;;;;;4436899;32;19994;-80
2023/02/18 09:43:17;;;;;;;;;;;;;;;;;;4424183;32;20466;-78
2023/02/18 09:45:42;;;;;;;22.70;4.70;;;;;;;;;;4413264;32;19944;-78
2023/02/18 09:48:08;;;;;;;;;;;;;;;;;;4433798;32;20133;-77
2023/02/18 09:50:33;;;;;;;28.02;4.95;;;;;;;;;;4431826;32;19941;-77
2023/02/18 09:52:58;;;;;;;;;;;;;;;;;;4433602;32;20144;-78
2023/02/18 09:55:26;;;;;;;22.45;4.53;;;;;;;;;;4444781;32;19933;-79
2023/02/18 09:57:53;;;;;;;32.33;5.78;;;;;;;;;;4436947;32;20072;-78
2023/02/18 10:00:21;;;;;;;31.52;5.60;;;;;;;;;;4436964;32;20388;-78
2023/02/18 10:02:57;;;;;;;23.48;5.03;;;;;;;;;;4437301;32;20382;-78
2023/02/18 10:05:23;;;;;;;31.52;5.12;;;;;;;;;;4439485;32;20029;-79
2023/02/18 10:07:50;;;;;;;28.25;4.72;;;;;;;;;;4425570;32;20038;-77
2023/02/18 10:10:30;;;;;;;26.17;5.03;;;;;;;;;;4437670;32;20085;-79
2023/02/18 10:12:55;;;;;;;18.95;4.28;;;;;;;;;;4438489;32;20025;-78
2023/02/18 10:15:20;;;;;;;;;;;;;;;;;;4437618;32;20437;-78
2023/02/18 10:17:46;;;;;;;32.58;5.68;;;;;;;;;;4423191;32;19962;-78
2023/02/18 10:20:15;;;;;;;24.00;4.47;;;;;;;;;;4423745;32;20177;-80
2023/02/18 10:22:41;;;;;;;26.30;4.57;;;;;;;;;;4437325;32;20030;-79
2023/02/18 10:25:06;;;;;;;;;;;;;;;;;;4440049;32;20056;-80
2023/02/18 10:27:33;;;;;;;23.42;5.22;;;;;;;;;;4439174;32;19936;-79
2023/02/18 10:30:04;;;;;;;25.70;5.40;;;;;;;;;;4426448;32;20612;-79
2023/02/18 10:32:34;;;;;;;36.47;7.12;;;;;;;;;;4439630;32;20029;-79
2023/02/18 10:35:15;;;;;;;18.40;4.62;;;;;;;;;;4439028;32;20347;-79
2023/02/18 10:37:40;;;;;;;36.40;7.12;;;;;;;;;;4440668;32;20026;-77
2023/02/18 10:40:05;;;;;;;;;;;;;;;;;;4441853;32;20029;-78
2023/02/18 10:42:39;;;;;;;28.05;5.80;;;;;;;;;;4442871;32;19945;-78
2023/02/18 10:45:12;;;;;;;25.70;5.25;;;;;;;;;;4437774;32;20335;-78
2023/02/18 10:47:39;;;;;;;24.27;4.90;;;;;;;;;;4438368;32;20041;-78
2023/02/18 10:50:09;;;;;;;48.15;6.90;;;;;;;;;;4440318;32;20371;-80
2023/02/18 10:52:39;;;;;;;26.02;4.85;;;;;;;;;;4439848;32;20033;-79
2023/02/18 10:55:08;;;;;;;29.27;5.72;;;;;;;;;;4438861;32;20029;-79
2023/02/18 10:57:33;;;;;;;24.05;6.32;;;;;;;;;;4438259;32;20371;-79
2023/02/18 10:59:58;;;;;;;;;;;;;;;;;;4427292;32;20088;-79
2023/02/18 11:02:25;;;;;;;27.23;4.90;;;;;;;;;;4440556;32;19944;-80
2023/02/18 11:04:51;;;;;;;28.25;4.97;;;;;;;;;;4439526;32;20022;-79
2023/02/18 11:07:16;;;;;;;;;;;;;;;;;;4442687;32;20025;-78
2023/02/18 11:09:59;;;;;;;24.23;5.43;;;;;;;;;;4426133;32;19947;-80
2023/02/18 11:12:38;;;;;;;21.62;5.32;;;;;;;;;;4441731;32;20097;-80
2023/02/18 11:15:15;;;;;;;24.00;5.68;;;;;;;;;;4443988;32;20037;-79
2023/02/18 11:17:41;;;;;;;21.12;4.43;;;;;;;;;;4443096;32;20415;-78
2023/02/18 11:20:24;;;;;;;27.23;5.53;;;;;;;;;;4425495;32;20056;-78
2023/02/18 11:22:49;;;;;;;22.55;4.50;;;;;;;;;;4426108;32;20100;-81
2023/02/18 11:25:14;;;;;;;;;;;;;;;;;;4440807;32;20021;-79
2023/02/18 11:27:45;;;;;;;24.77;5.78;;;;;;;;;;4439298;32;19940;-79
2023/02/18 11:30:18;;;;;;;24.25;4.70;;;;;;;;;;4439606;32;20030;-79
2023/02/18 11:32:46;;;;;;;18.92;4.22;;;;;;;;;;4440113;32;20034;-79
2023/02/18 11:35:20;;;;;;;21.27;4.28;;;;;;;;;;4440693;32;20449;-78
2023/02/18 11:37:45;;;;;;;21.80;4.10;;;;;;;;;;4440073;32;20064;-79
2023/02/18 11:40:10;;;;;;;;;;;;;;;;;;4440630;32;20030;-80
2023/02/18 11:42:36;;;;;;;27.15;4.43;;;;;;;;;;4440716;32;19940;-79
2023/02/18 11:45:01;;;;;;;18.08;4.50;;;;;;;;;;4442104;32;20056;-80
2023/02/18 11:47:29;;;;;;;23.83;4.90;;;;;;;;;;4441400;32;20025;-79
2023/02/18 11:49:59;;;;;;;24.42;4.78;;;;;;;;;;4441309;32;20136;-79
2023/02/18 11:52:31;;;;;;;23.08;4.03;;;;;;;;;;4440366;32;20042;-78
2023/02/18 11:55:00;;;;;;;27.35;4.50;;;;;;;;;;4426442;32;20400;-79
2023/02/18 11:57:26;;;;;;;23.62;4.65;;;;;;;;;;4424827;32;20079;-80
2023/02/18 11:59:51;;;;;;;;;;;;;;;;;;4425935;32;20038;-79
2023/02/18 12:02:26;;;;;;;27.55;5.18;;;;;;;;;;4439865;32;19973;-79
2023/02/18 12:04:57;;;;;;;21.65;4.20;;;;;;;;;;4441329;32;20034;-81
2023/02/18 12:07:24;;;;;;;20.05;3.65;;;;;;;;;;4440159;32;20044;-78
2023/02/18 12:09:51;;;;;;;20.95;3.35;;;;;;;;;;4441993;32;20060;-79
2023/02/18 12:12:23;;;;;;;19.83;3.62;;;;;;;;;;4444847;32;20025;-79
2023/02/18 12:14:50;;;;;;;14.40;4.12;;;;;;;;;;4443100;32;20026;-79
2023/02/18 12:17:24;;;;;;;15.90;3.35;;;;;;;;;;4438260;32;20030;-78
2023/02/18 12:20:08;;;;;;;17.67;3.37;;;;;;;;;;4439605;32;20065;-77
2023/02/18 12:22:48;;;;;;;19.62;3.97;;;;;;;;;;4438975;32;20029;-77
2023/02/18 12:25:16;;;;;;;15.07;3.20;;;;;;;;;;4438339;32;20056;-79
2023/02/18 12:27:47;;;;;;;31.17;4.78;;;;;;;;;;4438900;32;20416;-79
2023/02/18 12:30:24;;;;;;;15.77;3.85;;;;;;;;;;4439171;32;20030;-81
2023/02/18 12:32:58;;;;;;;16.70;4.50;;;;;;;;;;4429622;32;20065;-77
2023/02/18 12:35:47;;;;;;;15.25;4.22;;;;;;;;;;4441274;32;20071;-80
2023/02/18 12:38:29;;;;;;;24.92;4.22;;;;;;;;;;4439559;32;20136;-78
2023/02/18 12:41:13;;;;;;;17.37;3.70;;;;;;;;;;4423289;32;20462;-77
2023/02/18 12:43:38;;;;;;;24.02;4.05;;;;;;;;;;4439374;32;20471;-78
2023/02/18 12:46:03;;;;;;;;;;;;;;;;;;4438230;32;20022;-77
2023/02/18 12:48:37;;;;;;;20.08;4.65;;;;;;;;;;4425418;32;19937;-79
2023/02/18 12:51:21;;;;;;;18.35;3.80;;;;;;;;;;4437784;32;20082;-78
2023/02/18 12:53:58;;;;;;;18.67;4.40;;;;;;;;;;4437033;32;20082;-78
2023/02/18 12:56:50;;;;;;;21.27;4.03;;;;;;;;;;4438486;32;20054;-79
2023/02/18 12:59:15;;;;;;;19.48;3.85;;;;;;;;;;4435559;32;20086;-80
2023/02/18 13:01:40;;;;;;;;;;;;;;;;;;4423624;32;20041;-79
2023/02/18 13:04:25;;;;;;;22.60;4.68;;;;;;;;;;4436698;32;19936;-78
2023/02/18 13:07:09;;;;;;;18.85;4.47;;;;;;;;;;4422369;32;20033;-78
2023/02/18 13:09:52;;;;;;;16.27;3.15;;;;;;;;;;4421962;32;20374;-77
2023/02/18 13:12:30;;;;;;;26.73;4.15;;;;;;;;;;4436241;32;20056;-77
2023/02/18 13:14:59;;;;;;;16.77;4.20;;;;;;;;;;4437442;32;20038;-77
2023/02/18 13:17:26;;;;;;;21.55;3.58;;;;;;;;;;4436699;32;20404;-77
2023/02/18 13:20:03;;;;;;;18.87;4.28;;;;;;;;;;4437657;32;20037;-77
2023/02/18 13:22:29;;;;;;;16.65;3.92;;;;;;;;;;4436024;32;20055;-78
2023/02/18 13:24:54;;;;;;;;;;;;;;;;;;4437312;32;20033;-78
2023/02/18 13:27:19;;;;;;;17.50;4.62;;;;;;;;;;4436835;32;19932;-78
2023/02/18 13:30:08;;;;;;;24.95;3.92;;;;;;;;;;4437599;32;20359;-78
2023/02/18 13:32:39;;;;;;;13.80;3.40;;;;;;;;;;4417983;32;20160;-77
2023/02/18 13:35:23;;;;;;;13.98;4.50;;;;;;;;;;4422107;32;20390;-78
2023/02/18 13:38:02;;;;;;;18.50;3.20;;;;;;;;;;4436465;32;20029;-78
2023/02/18 13:40:29;;;;;;;17.00;3.92;;;;;;;;;;4438648;32;20029;-77
2023/02/18 13:43:14;;;;;;;24.00;5.05;;;;;;;;;;4436429;32;20320;-78
2023/02/18 13:45:39;;;;;;;19.75;4.82;;;;;;;;;;4424056;32;20147;-80
2023/02/18 13:48:20;;;;;;;16.73;3.28;;;;;;;;;;4439537;32;20033;-79
2023/02/18 13:50:45;;;;;;;16.33;4.05;;;;;;;;;;4424857;32;20033;-77
2023/02/18 13:53:12;;;;;;;13.45;2.85;;;;;;;;;;4438879;32;20120;-78
2023/02/18 13:55:54;;;;;;;23.00;4.10;;;;;;;;;;4437422;32;20049;-78
2023/02/18 13:58:26;;;;;;;13.38;4.32;;;;;;;;;;4436491;32;20064;-77
2023/02/18 14:00:54;;;;;;;16.60;3.22;;;;;;;;;;4437740;32;20450;-78
2023/02/18 14:03:40;;;;;;;13.65;3.95;;;;;;;;;;4436727;32;20061;-79
2023/02/18 14:06:22;;;;;;;15.90;3.90;;;;;;;;;;4420079;32;20046;-77
2023/02/18 14:08:48;;;;;;;13.27;3.42;;;;;;;;;;4437170;32;20041;-79
2023/02/18 14:11:13;;;;;;;21.23;3.87;;;;;;;;;;4436264;32;20094;-78
2023/02/18 14:13:41;;;;;;;17.35;4.37;;;;;;;;;;4421971;32;20069;-78
2023/02/18 14:16:07;;;;;;;13.98;3.67;;;;;;;;;;4436234;32;20052;-76
2023/02/18 14:18:38;;;;;;;15.80;3.85;;;;;;;;;;4435869;32;20076;-78
2023/02/18 14:21:09;;;;;;;18.12;4.00;;;;;;;;;;4438312;32;20423;-76
2023/02/18 14:23:35;;;;;;;25.45;4.55;;;;;;;;;;4438731;32;20033;-78
2023/02/18 14:26:00;;;;;;;;;;;;;;;;;;4436503;32;20071;-79
2023/02/18 14:28:34;;;;;;;19.37;3.87;;;;;;;;;;4436593;32;19932;-77
2023/02/18 14:31:00;;;;;;;22.52;4.40;;;;;;;;;;4438488;32;20064;-78
2023/02/18 14:33:26;;;;;;;;;;;;;;;;;;4441940;32;20037;-79
2023/02/18 14:36:09;;;;;;;16.67;3.80;;;;;;;;;;4440916;32;19967;-78
2023/02/18 14:38:53;;;;;;;15.70;3.25;;;;;;;;;;4439068;32;20061;-80
2023/02/18 14:41:30;;;;;;;19.87;4.18;;;;;;;;;;4440428;32;20111;-79
2023/02/18 14:43:55;;;;;;;;;;;;;;;;;;4440517;32;20021;-78
2023/02/18 14:46:28;;;;;;;21.40;3.60;;;;;;;;;;4439370;32;19971;-78
2023/02/18 14:49:04;;;;;;;13.18;3.85;;;;;;;;;;4440313;32;20025;-79
2023/02/18 14:51:30;;;;;;;18.10;3.85;;;;;;;;;;4424960;32;20393;-79
2023/02/18 14:54:01;;;;;;;22.40;4.32;;;;;;;;;;4439125;32;20444;-78
2023/02/18 14:56:26;;;;;;;19.30;4.82;;;;;;;;;;4440872;32;20075;-77